Center, Missouri
Current Conditions -  °F | °C
As of 9:15 PM on Thursday 27 Nov 2014 (Local Time) from KHAE Reporting Station
Clear Clear  
Wind Chill: 23°   Ceiling: Unl
Heat Index: 23°   Visibility: 10mi
Dew Point: 14°   Wind: 3mph
Humidity: 68%   Direction: 110°ESE
Pressure: 30.4"   Gusts: NA
Location:  39.51°N, 91.53°W
Report Text: KHAE 280315Z AUTO 11003KT 10SM CLR M05/M10 A3040 RMK AO2
Loading
Personal Weather Stations






























Interactive Weather Map New forecast layout! Learn more

10-Day Weather Forecast

Advertisements
Track Severe Weather on mobile